createdAt,value
2022-10-22T01:00:37.547Z,783.95
2022-10-22T01:01:39.815Z,829.05
2022-10-22T01:02:44.560Z,645.47
2022-10-22T01:03:46.792Z,699.35
2022-10-22T01:04:51.583Z,858.42
2022-10-22T01:05:56.994Z,853.00
2022-10-22T01:07:01.853Z,844.72
2022-10-22T01:08:04.173Z,845.75
2022-10-22T01:09:19.983Z,858.47
2022-10-22T01:10:39.068Z,838.28
2022-10-22T01:11:55.372Z,744.78
2022-10-22T01:13:26.790Z,422.98
2022-10-22T01:14:41.577Z,679.37
2022-10-22T01:15:54.161Z,708.40
2022-10-22T01:17:07.518Z,749.95
2022-10-22T01:18:16.500Z,657.75
2022-10-22T01:19:45.521Z,714.22
2022-10-22T01:20:59.574Z,697.60
2022-10-22T01:22:12.843Z,653.45
2022-10-22T01:23:32.813Z,648.35
2022-10-22T01:24:53.368Z,713.08
2022-10-22T01:26:04.406Z,699.70
2022-10-22T01:27:27.394Z,577.22
2022-10-22T01:28:48.793Z,446.50
2022-10-22T01:29:56.594Z,249.68
2022-10-22T01:31:02.056Z,163.77
2022-10-22T01:32:12.616Z,12.38
2022-10-22T01:33:22.444Z,13.77
2022-10-22T01:34:28.833Z,11.82
2022-10-22T01:35:37.575Z,13.55
2022-10-22T01:36:41.690Z,10.77
2022-10-22T01:37:49.916Z,12.20
2022-10-22T01:38:53.705Z,11.27
2022-10-22T01:40:00.510Z,11.32
2022-10-22T01:41:03.227Z,8.45
2022-10-22T01:42:09.008Z,9.40
2022-10-22T01:43:12.222Z,8.70
2022-10-22T01:44:31.888Z,9.38
2022-10-22T01:45:36.643Z,8.00
2022-10-22T01:46:41.966Z,8.18
2022-10-22T01:47:56.532Z,7.28
2022-10-22T01:49:19.460Z,6.00
2022-10-22T01:50:54.070Z,6.57
2022-10-22T01:52:07.643Z,8.32
2022-10-22T01:53:28.153Z,5.70
2022-10-22T01:54:39.956Z,101.10
2022-10-22T01:55:58.894Z,9.80
2022-10-22T01:57:12.662Z,6.47
2022-10-22T01:58:29.103Z,4.75
2022-10-22T01:59:45.668Z,11.20
2022-10-22T02:00:56.350Z,20.00
2022-10-22T02:02:07.908Z,5.60
2022-10-22T02:03:17.432Z,8.18
2022-10-22T02:04:30.462Z,6.97
2022-10-22T02:05:38.939Z,6.07
2022-10-22T02:06:48.167Z,6.97
2022-10-22T02:07:54.923Z,5.70
2022-10-22T02:09:01.412Z,5.40
2022-10-22T02:10:05.520Z,6.13
2022-10-22T02:11:10.738Z,4.93
2022-10-22T02:12:17.079Z,4.65
2022-10-22T02:13:26.261Z,4.80
2022-10-22T02:14:34.287Z,4.32
2022-10-22T02:15:40.487Z,4.18
2022-10-22T02:16:47.586Z,4.75
2022-10-22T02:17:51.061Z,3.97
2022-10-22T02:18:59.452Z,4.10
2022-10-22T02:20:06.883Z,4.95
2022-10-22T02:21:12.516Z,3.40
2022-10-22T02:22:14.734Z,3.42
2022-10-22T02:23:19.717Z,3.15
2022-10-22T02:24:23.051Z,3.83
2022-10-22T02:25:33.686Z,3.45
2022-10-22T02:26:41.932Z,3.28
2022-10-22T02:27:49.918Z,3.38
2022-10-22T02:28:59.884Z,2.60
2022-10-22T02:30:07.720Z,3.25
2022-10-22T02:31:18.187Z,3.63
2022-10-22T02:32:27.432Z,2.97
2022-10-22T02:33:33.374Z,3.80
2022-10-22T02:34:38.204Z,3.33
2022-10-22T02:35:42.077Z,3.60
2022-10-22T02:36:50.313Z,2.50
2022-10-22T02:37:55.635Z,2.83
2022-10-22T02:39:01.496Z,3.00
2022-10-22T02:40:04.090Z,2.35
2022-10-22T02:41:09.260Z,2.85
2022-10-22T02:42:12.764Z,2.50
2022-10-22T02:43:17.418Z,2.60
2022-10-22T02:44:22.368Z,2.72
2022-10-22T02:45:27.609Z,2.65
2022-10-22T02:46:32.301Z,1.77
2022-10-22T02:47:37.003Z,4.03
2022-10-22T02:48:39.138Z,1.95
2022-10-22T02:49:43.775Z,1.80
2022-10-22T02:50:46.258Z,1.92
2022-10-22T02:51:51.036Z,2.25
2022-10-22T02:52:53.114Z,1.70
2022-10-22T02:53:57.841Z,1.55
2022-10-22T02:55:00.145Z,2.42
2022-10-22T02:56:04.856Z,2.75
2022-10-22T02:57:07.042Z,2.08
2022-10-22T02:58:14.082Z,1.50
2022-10-22T02:59:16.199Z,2.50
2022-10-22T03:00:21.515Z,2.15
2022-10-22T03:01:23.972Z,2.20
2022-10-22T03:02:31.358Z,1.50
2022-10-22T03:03:34.073Z,1.63
2022-10-22T03:04:38.777Z,2.00
2022-10-22T03:05:41.179Z,1.67
2022-10-22T03:06:48.867Z,1.73
2022-10-22T03:07:50.978Z,1.70
2022-10-22T03:08:55.791Z,1.90
2022-10-22T03:09:57.889Z,1.80
2022-10-22T03:11:02.568Z,1.83
2022-10-22T03:12:08.766Z,2.40
2022-10-22T03:13:13.459Z,2.30
2022-10-22T03:14:18.165Z,2.22
2022-10-22T03:15:20.323Z,2.03
2022-10-22T03:16:25.082Z,1.75
2022-10-22T03:17:29.777Z,2.70
2022-10-22T03:18:34.723Z,1.50
2022-10-22T03:19:36.888Z,1.60
2022-10-22T03:20:42.114Z,1.50
2022-10-22T03:21:48.734Z,1.85
2022-10-22T03:22:56.625Z,1.85
2022-10-22T03:23:59.661Z,1.70
2022-10-22T03:25:10.748Z,1.67
2022-10-22T03:26:14.636Z,2.58
2022-10-22T03:27:21.613Z,2.67
2022-10-22T03:28:23.716Z,3.97
2022-10-22T03:29:29.921Z,2.15
2022-10-22T03:30:32.388Z,2.78
2022-10-22T03:31:37.127Z,2.42
2022-10-22T03:32:41.850Z,2.30
2022-10-22T03:33:46.541Z,2.38
2022-10-22T03:34:48.679Z,2.10
2022-10-22T03:35:53.492Z,2.65
2022-10-22T03:37:00.269Z,1.67
2022-10-22T03:38:02.456Z,1.45
2022-10-22T03:39:08.143Z,1.50
2022-10-22T03:40:12.262Z,1.65
2022-10-22T03:41:17.183Z,1.75
2022-10-22T03:42:19.604Z,1.38
2022-10-22T03:43:24.329Z,1.42
2022-10-22T03:44:26.855Z,1.30
2022-10-22T03:45:31.710Z,1.88
2022-10-22T03:46:34.159Z,2.10
2022-10-22T03:47:39.805Z,1.33
2022-10-22T03:48:44.696Z,1.65
2022-10-22T03:49:49.479Z,1.17
2022-10-22T03:50:51.623Z,1.65
2022-10-22T03:51:56.522Z,1.45
2022-10-22T03:52:59.750Z,1.85
2022-10-22T03:54:04.715Z,2.13
2022-10-22T03:55:08.750Z,1.48
2022-10-22T03:56:15.009Z,1.92
2022-10-22T03:57:17.547Z,1.38
2022-10-22T03:58:22.291Z,1.70
2022-10-22T03:59:24.400Z,1.48
2022-10-22T04:00:29.113Z,2.10
2022-10-22T04:01:31.794Z,1.83
2022-10-22T04:02:36.721Z,0.90
2022-10-22T04:03:39.193Z,1.42
2022-10-22T04:04:46.562Z,1.08
2022-10-22T04:05:48.706Z,1.50
2022-10-22T04:06:53.392Z,1.10
2022-10-22T04:07:55.589Z,2.08
2022-10-22T04:09:01.283Z,1.95
2022-10-22T04:10:04.455Z,1.48
2022-10-22T04:11:09.557Z,1.88
2022-10-22T04:12:11.664Z,1.40
2022-10-22T04:13:16.569Z,2.03
2022-10-22T04:14:18.657Z,1.00
2022-10-22T04:15:24.141Z,1.67
2022-10-22T04:16:31.023Z,1.38
2022-10-22T04:17:39.897Z,1.52
2022-10-22T04:18:43.727Z,1.17
2022-10-22T04:19:51.068Z,1.00
2022-10-22T04:20:53.208Z,2.13
2022-10-22T04:22:00.234Z,1.52
2022-10-22T04:23:02.320Z,2.78
2022-10-22T04:24:07.506Z,1.88
2022-10-22T04:25:10.221Z,1.98
2022-10-22T04:26:17.606Z,2.63
2022-10-22T04:27:19.816Z,2.22
2022-10-22T04:28:24.545Z,2.47
2022-10-22T04:29:26.821Z,1.40
2022-10-22T04:30:31.561Z,1.83
2022-10-22T04:31:33.747Z,2.35
2022-10-22T04:32:38.584Z,3.15
2022-10-22T04:33:41.560Z,2.70
2022-10-22T04:34:46.367Z,2.50
2022-10-22T04:35:51.070Z,1.95
2022-10-22T04:36:55.909Z,2.47
2022-10-22T04:37:58.030Z,1.10
2022-10-22T04:39:04.185Z,2.25
2022-10-22T04:40:08.083Z,1.20
2022-10-22T04:41:14.917Z,0.82
2022-10-22T04:42:17.004Z,1.00
2022-10-22T04:43:21.959Z,4.57
2022-10-22T04:44:24.131Z,5.95
2022-10-22T04:45:29.148Z,4.22
2022-10-22T04:46:33.324Z,3.63
2022-10-22T04:47:38.142Z,1.10
2022-10-22T04:48:42.691Z,3.17
2022-10-22T04:49:47.462Z,1.77
2022-10-22T04:50:52.170Z,1.63
2022-10-22T04:51:56.875Z,1.48
2022-10-22T04:52:59.011Z,2.42
2022-10-22T04:54:03.867Z,3.08
2022-10-22T04:55:06.610Z,2.42
2022-10-22T04:56:13.979Z,1.77
2022-10-22T04:57:16.139Z,0.70
2022-10-22T04:58:21.150Z,1.33
2022-10-22T04:59:23.226Z,1.73
2022-10-22T05:00:27.955Z,1.25
2022-10-22T05:01:32.028Z,1.80
2022-10-22T05:02:36.837Z,1.98
2022-10-22T05:03:39.113Z,1.27
2022-10-22T05:04:46.460Z,4.05
2022-10-22T05:05:48.557Z,2.55
2022-10-22T05:06:55.893Z,2.88
2022-10-22T05:07:57.927Z,1.63
2022-10-22T05:09:05.137Z,1.30
2022-10-22T05:10:09.428Z,1.15
2022-10-22T05:11:15.557Z,0.85
2022-10-22T05:12:17.629Z,1.00
2022-10-22T05:13:22.578Z,0.73
2022-10-22T05:14:25.565Z,0.80
2022-10-22T05:15:30.649Z,0.75
2022-10-22T05:16:34.918Z,1.30
2022-10-22T05:17:42.388Z,2.22
2022-10-22T05:18:45.325Z,2.03
2022-10-22T05:19:50.126Z,1.90
2022-10-22T05:20:52.234Z,1.70
2022-10-22T05:22:02.125Z,2.35
2022-10-22T05:23:04.293Z,2.28
2022-10-22T05:24:10.179Z,3.60
2022-10-22T05:25:12.339Z,3.75
2022-10-22T05:26:18.809Z,2.97
2022-10-22T05:27:23.592Z,3.08
2022-10-22T05:28:25.759Z,2.90
2022-10-22T05:29:31.039Z,3.78
2022-10-22T05:30:33.171Z,2.40
2022-10-22T05:31:38.993Z,2.60
2022-10-22T05:32:41.148Z,2.20
2022-10-22T05:33:46.957Z,2.38
2022-10-22T05:34:51.415Z,1.67
2022-10-22T05:35:56.476Z,1.33
2022-10-22T05:37:03.720Z,1.55
2022-10-22T05:38:05.789Z,1.45
2022-10-22T05:39:10.797Z,1.63
2022-10-22T05:40:26.631Z,1.30
2022-10-22T05:41:36.222Z,2.53
2022-10-22T05:42:38.550Z,1.33
2022-10-22T05:43:43.623Z,1.58
2022-10-22T05:44:45.694Z,1.25
2022-10-22T05:45:50.467Z,1.23
2022-10-22T05:46:55.190Z,1.95
2022-10-22T05:47:57.227Z,1.60
2022-10-22T05:49:03.588Z,1.90
2022-10-22T05:50:06.713Z,2.50
2022-10-22T05:51:13.901Z,1.90
2022-10-22T05:52:21.754Z,0.70
2022-10-22T05:53:26.786Z,1.98
2022-10-22T05:54:31.840Z,1.42
2022-10-22T05:55:37.143Z,1.40
2022-10-22T05:56:42.199Z,2.63
2022-10-22T05:57:44.311Z,2.33
2022-10-22T05:58:49.362Z,1.95
2022-10-22T05:59:51.897Z,2.35
2022-10-22T06:00:56.593Z,2.30
2022-10-22T06:02:01.501Z,1.70
2022-10-22T06:03:03.949Z,2.75
2022-10-22T06:04:12.864Z,1.95
2022-10-22T06:05:15.090Z,1.60
2022-10-22T06:06:23.870Z,3.95
2022-10-22T06:07:28.941Z,1.52
2022-10-22T06:08:34.323Z,1.40
2022-10-22T06:11:02.665Z,1.75
2022-10-22T06:12:09.539Z,1.10
2022-10-22T06:13:19.785Z,1.50
2022-10-22T06:14:24.030Z,1.63
2022-10-22T06:15:33.619Z,1.88
2022-10-22T06:16:39.679Z,1.58
2022-10-22T06:17:45.015Z,2.25
2022-10-22T06:19:02.732Z,1.52
2022-10-22T06:20:39.841Z,3.13
2022-10-22T06:21:49.077Z,2.72
2022-10-22T06:23:09.385Z,2.22
2022-10-22T06:24:16.025Z,2.40
2022-10-22T06:25:19.037Z,5.22
2022-10-22T06:26:28.233Z,8.50
2022-10-22T06:27:31.815Z,5.95
2022-10-22T06:28:41.593Z,16.10
2022-10-22T06:29:47.191Z,5.88
2022-10-22T06:30:53.775Z,4.90
2022-10-22T06:31:57.784Z,3.35
2022-10-22T06:33:04.317Z,2.75
2022-10-22T06:34:08.825Z,1.40
2022-10-22T06:35:15.255Z,1.98
2022-10-22T06:36:20.842Z,1.65
2022-10-22T06:37:27.221Z,1.85
2022-10-22T06:38:35.529Z,1.55
2022-10-22T06:39:49.886Z,2.67
2022-10-22T06:40:56.594Z,3.28
2022-10-22T06:42:03.254Z,2.40
2022-10-22T06:43:07.067Z,1.60
2022-10-22T06:44:18.317Z,2.15
2022-10-22T06:45:21.697Z,3.60
2022-10-22T06:46:32.498Z,5.45
2022-10-22T06:47:40.563Z,9.48
2022-10-22T06:48:47.302Z,3.45
2022-10-22T06:49:51.589Z,2.95
2022-10-22T06:51:00.015Z,2.33
2022-10-22T06:52:03.996Z,1.60
2022-10-22T06:53:09.991Z,1.88
2022-10-22T06:54:18.855Z,1.33
2022-10-22T06:55:21.393Z,1.23
2022-10-22T06:56:31.147Z,0.88
2022-10-22T06:57:36.729Z,2.28
2022-10-22T06:58:42.692Z,1.70
2022-10-22T06:59:49.591Z,1.40
2022-10-22T07:01:05.566Z,2.08
2022-10-22T07:02:13.842Z,2.05
2022-10-22T07:03:19.140Z,1.48
2022-10-22T07:04:25.148Z,1.90
2022-10-22T07:05:35.642Z,0.85
2022-10-22T07:06:43.121Z,1.25
2022-10-22T07:07:46.553Z,1.10
2022-10-22T07:08:53.691Z,1.80
2022-10-22T07:10:00.474Z,1.48
2022-10-22T07:11:15.105Z,1.40
2022-10-22T07:12:21.733Z,2.17
2022-10-22T07:13:28.336Z,1.95
2022-10-22T07:14:38.599Z,1.30
2022-10-22T07:15:42.688Z,2.05
2022-10-22T07:16:50.477Z,1.15
2022-10-22T07:17:53.361Z,1.50
2022-10-22T07:19:06.392Z,1.90
2022-10-22T07:20:17.993Z,1.60
2022-10-22T07:22:28.324Z,1.13
2022-10-22T07:23:37.407Z,1.50
2022-10-22T07:24:49.576Z,1.13
2022-10-22T07:25:58.724Z,1.40
2022-10-22T07:27:01.380Z,1.65
2022-10-22T07:28:09.382Z,1.55
2022-10-22T07:29:12.697Z,1.85
2022-10-22T07:30:18.913Z,1.85
2022-10-22T07:31:22.334Z,3.45
2022-10-22T07:32:27.710Z,2.15
2022-10-22T07:33:30.502Z,2.72
2022-10-22T07:34:37.591Z,2.10
2022-10-22T07:35:43.377Z,2.25
2022-10-22T07:36:48.683Z,2.55
2022-10-22T07:37:51.895Z,1.58
2022-10-22T07:38:59.970Z,1.23
2022-10-22T07:40:04.134Z,1.05
2022-10-22T07:41:14.243Z,0.93
2022-10-22T07:42:16.469Z,1.25
2022-10-22T07:43:22.707Z,1.40
2022-10-22T07:44:45.471Z,1.55
2022-10-22T07:45:52.192Z,2.25
2022-10-22T07:46:58.482Z,1.02
2022-10-22T07:48:12.637Z,0.68
2022-10-22T07:49:19.653Z,1.00
2022-10-22T07:50:25.754Z,1.58
2022-10-22T07:51:32.523Z,1.58
2022-10-22T07:52:38.322Z,2.45
2022-10-22T07:53:56.225Z,1.10
2022-10-22T07:55:02.578Z,0.80
2022-10-22T07:56:24.721Z,1.80
2022-10-22T07:57:30.751Z,1.80
2022-10-22T07:58:36.817Z,1.73
2022-10-22T07:59:42.350Z,1.77
2022-10-22T08:01:02.032Z,1.88
2022-10-22T08:02:18.179Z,1.02
2022-10-22T08:03:24.981Z,1.88
2022-10-22T08:04:27.692Z,1.75
2022-10-22T08:05:33.125Z,0.93
2022-10-22T08:06:45.746Z,1.15
2022-10-22T08:07:50.745Z,1.35
2022-10-22T08:08:58.273Z,1.67
2022-10-22T08:10:02.225Z,3.10
2022-10-22T08:11:08.347Z,1.42
2022-10-22T08:12:17.288Z,2.03
2022-10-22T08:13:21.256Z,1.90
2022-10-22T08:14:27.078Z,1.50
2022-10-22T08:15:31.674Z,1.50
2022-10-22T08:16:38.890Z,0.95
2022-10-22T08:17:42.584Z,1.45
2022-10-22T08:18:53.973Z,1.92
2022-10-22T08:19:57.349Z,1.73
2022-10-22T08:21:03.812Z,2.25
2022-10-22T08:22:09.858Z,1.65
2022-10-22T08:23:16.841Z,1.25
2022-10-22T08:24:20.030Z,51.22
2022-10-22T08:25:25.578Z,0.95
2022-10-22T08:26:29.685Z,1.35
2022-10-22T08:27:42.514Z,1.42
2022-10-22T08:28:49.738Z,1.45
2022-10-22T08:29:53.051Z,1.25
2022-10-22T08:30:59.275Z,1.70
2022-10-22T08:32:14.945Z,1.20
2022-10-22T08:33:20.448Z,1.55
2022-10-22T08:34:23.492Z,1.48
2022-10-22T08:35:31.547Z,1.02
2022-10-22T08:36:37.044Z,1.02
2022-10-22T08:37:43.372Z,1.90
2022-10-22T08:38:46.936Z,1.20
2022-10-22T08:39:53.447Z,3.33
2022-10-22T08:41:09.656Z,3.55
2022-10-22T08:42:37.707Z,2.45
2022-10-22T08:44:05.263Z,3.65
2022-10-22T08:45:17.126Z,10.85
2022-10-22T08:46:40.411Z,73.45
2022-10-22T08:48:09.744Z,942.17
2022-10-22T08:49:22.445Z,2.63
2022-10-22T08:50:34.773Z,1.80
2022-10-22T08:51:42.660Z,1.05
2022-10-22T08:52:50.325Z,1.20
2022-10-22T08:54:16.183Z,0.93
2022-10-22T08:55:19.657Z,3.03
2022-10-22T08:56:29.620Z,5.05
2022-10-22T08:57:52.425Z,3.10
2022-10-22T08:59:07.036Z,1.70
2022-10-22T09:00:37.254Z,1.70
2022-10-22T09:01:45.017Z,1.55
2022-10-22T09:03:07.708Z,103.68
2022-10-22T09:04:25.718Z,0.90
2022-10-22T09:05:42.796Z,0.63
2022-10-22T09:06:53.635Z,220.00
2022-10-22T09:09:16.450Z,395.45
2022-10-22T09:10:26.119Z,1.45
2022-10-22T09:11:37.023Z,0.80
2022-10-22T09:12:43.360Z,2.33
2022-10-22T09:13:54.597Z,1.02
2022-10-22T09:15:01.480Z,0.82
2022-10-22T09:16:19.306Z,1.42
2022-10-22T09:17:42.860Z,0.77
2022-10-22T09:19:01.181Z,1.10
2022-10-22T09:20:10.950Z,1.40
2022-10-22T09:21:27.151Z,1.80
2022-10-22T09:22:39.370Z,1.00
2022-10-22T09:24:02.084Z,1.33
2022-10-22T09:25:22.935Z,0.90
2022-10-22T09:26:27.709Z,0.80
2022-10-22T09:27:34.939Z,1.10
2022-10-22T09:28:38.178Z,1.52
2022-10-22T09:29:47.714Z,1.15
2022-10-22T09:31:00.206Z,1.00
2022-10-22T09:32:06.442Z,0.60
2022-10-22T09:33:18.243Z,1.15
2022-10-22T09:34:26.368Z,1.65
2022-10-22T09:35:34.106Z,1.52
2022-10-22T09:36:41.307Z,2.78
2022-10-22T09:37:52.305Z,1.75
2022-10-22T09:38:58.043Z,0.80
2022-10-22T09:40:06.625Z,0.80
2022-10-22T09:41:13.478Z,0.90
2022-10-22T09:42:19.444Z,0.95
2022-10-22T09:43:28.624Z,1.13
2022-10-22T09:44:34.393Z,0.75
2022-10-22T09:45:40.029Z,1.35
2022-10-22T09:46:48.957Z,1.52
2022-10-22T09:48:03.642Z,1.10
2022-10-22T09:49:15.257Z,1.00
2022-10-22T09:51:58.257Z,0.75
2022-10-22T09:53:05.746Z,1.00
2022-10-22T09:54:20.034Z,0.98
2022-10-22T09:55:27.046Z,1.55
2022-10-22T09:56:40.295Z,1.80
2022-10-22T09:57:43.846Z,1.10
2022-10-22T09:58:54.668Z,0.75
2022-10-22T09:59:58.173Z,1.08
2022-10-22T10:01:05.212Z,1.35
2022-10-22T10:02:20.075Z,0.77
2022-10-22T10:03:36.551Z,0.88
2022-10-22T10:04:49.888Z,1.90
2022-10-22T10:06:04.917Z,0.90
2022-10-22T10:07:18.643Z,1.40
2022-10-22T10:08:26.268Z,1.23
2022-10-22T10:09:32.607Z,1.27
2022-10-22T10:10:45.632Z,1.23
2022-10-22T10:12:02.416Z,1.58
2022-10-22T10:13:31.446Z,0.60
2022-10-22T10:14:47.034Z,0.70
2022-10-22T10:16:05.757Z,0.70
2022-10-22T10:17:26.376Z,0.52
2022-10-22T10:18:44.796Z,1.10
2022-10-22T10:20:11.711Z,1.25
2022-10-22T10:21:23.212Z,1.17
2022-10-22T10:22:45.026Z,1.08
2022-10-22T10:23:58.031Z,1.70
2022-10-22T10:25:19.006Z,1.20
2022-10-22T10:26:36.452Z,0.90
2022-10-22T10:27:43.408Z,1.42
2022-10-22T10:29:07.967Z,1.83
2022-10-22T10:30:15.971Z,1.65
2022-10-22T10:31:38.128Z,1.83
2022-10-22T10:33:15.722Z,0.93
2022-10-22T10:34:33.914Z,1.45
2022-10-22T10:35:48.422Z,0.77
2022-10-22T10:37:03.000Z,1.25
2022-10-22T10:38:27.325Z,1.48
2022-10-22T10:39:44.468Z,0.85
2022-10-22T10:40:51.770Z,1.48
2022-10-22T10:42:01.849Z,6.50
2022-10-22T10:43:12.785Z,2.85
2022-10-22T10:44:40.557Z,1.48
2022-10-22T10:45:57.067Z,0.90
2022-10-22T10:47:13.624Z,1.70
2022-10-22T10:48:40.615Z,2.22
2022-10-22T10:49:45.057Z,1.23
2022-10-22T10:51:08.428Z,1.10
2022-10-22T10:52:21.286Z,1.50
2022-10-22T10:53:39.032Z,1.38
2022-10-22T10:54:56.061Z,1.05
2022-10-22T10:56:08.315Z,0.65
2022-10-22T10:57:23.896Z,1.02
2022-10-22T10:58:35.702Z,1.02
2022-10-22T10:59:57.621Z,0.88
2022-10-22T11:01:13.464Z,1.52
2022-10-22T11:02:48.932Z,1.20
2022-10-22T11:04:27.127Z,1.42
2022-10-22T11:05:47.195Z,1.75
2022-10-22T11:06:50.900Z,0.93
2022-10-22T11:08:11.807Z,1.63
2022-10-22T11:09:28.347Z,0.95
2022-10-22T11:10:36.971Z,1.23
2022-10-22T11:11:51.363Z,1.65
2022-10-22T11:12:59.901Z,1.13
2022-10-22T11:14:14.827Z,1.48
2022-10-22T11:15:28.186Z,1.10
2022-10-22T11:17:00.037Z,1.73
2022-10-22T11:18:18.021Z,1.77
2022-10-22T11:19:50.824Z,1.25
2022-10-22T11:21:10.782Z,1.40
2022-10-22T11:22:23.444Z,2.00
2022-10-22T11:23:40.226Z,1.80
2022-10-22T11:24:53.194Z,0.95
2022-10-22T11:25:59.007Z,1.27
2022-10-22T11:27:06.216Z,2.10
2022-10-22T11:28:20.702Z,1.85
2022-10-22T11:29:30.726Z,0.68
2022-10-22T11:30:55.402Z,0.85
2022-10-22T11:32:02.252Z,0.93
2022-10-22T11:33:11.017Z,1.40
2022-10-22T11:34:33.608Z,1.70
2022-10-22T11:35:43.301Z,0.50
2022-10-22T11:36:51.171Z,0.75
2022-10-22T11:37:57.260Z,1.15
2022-10-22T11:39:05.957Z,1.15
2022-10-22T11:40:16.220Z,1.10
2022-10-22T11:41:28.007Z,0.77
2022-10-22T11:42:35.513Z,0.43
2022-10-22T11:44:01.644Z,1.10
2022-10-22T11:45:08.117Z,0.75
2022-10-22T11:46:32.929Z,0.50
2022-10-22T11:47:45.171Z,1.35
2022-10-22T11:49:04.069Z,0.93
2022-10-22T11:50:25.662Z,1.08
2022-10-22T11:51:43.135Z,0.88
2022-10-22T11:52:58.837Z,1.38
2022-10-22T11:54:24.159Z,1.20
2022-10-22T11:55:48.736Z,1.00
2022-10-22T11:57:01.298Z,1.13
2022-10-22T11:58:32.026Z,1.50
2022-10-22T11:59:40.912Z,0.88
2022-10-22T12:00:52.442Z,1.38
2022-10-22T12:02:00.112Z,1.75
2022-10-22T12:03:06.435Z,1.30
2022-10-22T12:04:26.116Z,0.93
2022-10-22T12:05:38.119Z,1.48
2022-10-22T12:06:58.563Z,1.42
2022-10-22T12:08:21.401Z,0.98
2022-10-22T12:09:30.584Z,0.90
2022-10-22T12:10:53.145Z,1.02
2022-10-22T12:12:05.283Z,1.40
2022-10-22T12:13:16.608Z,1.70
2022-10-22T12:14:30.309Z,1.70
2022-10-22T12:15:33.754Z,1.27
2022-10-22T12:16:55.785Z,0.93
2022-10-22T12:18:04.461Z,1.05
2022-10-22T12:19:16.024Z,1.92
2022-10-22T12:20:25.548Z,1.42
2022-10-22T12:21:28.798Z,1.42
2022-10-22T12:22:39.920Z,1.13
2022-10-22T12:23:44.931Z,2.05
2022-10-22T12:24:56.335Z,1.38
2022-10-22T12:26:00.498Z,1.10
2022-10-22T12:27:09.245Z,1.85
2022-10-22T12:28:14.495Z,2.22
2022-10-22T12:29:23.212Z,1.98
2022-10-22T12:30:31.536Z,1.98
2022-10-22T12:31:44.775Z,2.05
2022-10-22T12:32:48.393Z,1.65
2022-10-22T12:34:00.470Z,1.65
2022-10-22T12:35:12.938Z,1.23
2022-10-22T12:36:19.211Z,0.90
2022-10-22T12:37:24.859Z,1.30
2022-10-22T12:38:32.682Z,1.10
2022-10-22T12:39:38.846Z,1.08
2022-10-22T12:40:45.942Z,1.83
2022-10-22T12:41:57.038Z,1.75
2022-10-22T12:43:01.936Z,1.15
2022-10-22T12:44:16.327Z,0.80
2022-10-22T12:45:22.882Z,1.17
2022-10-22T12:46:28.244Z,0.93
2022-10-22T12:47:34.548Z,1.05
2022-10-22T12:48:41.610Z,0.93
2022-10-22T12:49:51.045Z,1.27
2022-10-22T12:50:58.629Z,1.83
2022-10-22T12:52:04.526Z,0.77
2022-10-22T12:53:19.344Z,0.80
2022-10-22T12:54:38.141Z,1.17
2022-10-22T12:55:42.634Z,0.93
2022-10-22T12:56:54.285Z,1.58
2022-10-22T12:59:20.390Z,1.38
2022-10-22T13:00:38.872Z,1.35
2022-10-22T13:01:48.925Z,1.23
2022-10-22T13:02:52.899Z,1.10
2022-10-22T13:04:10.757Z,0.90
2022-10-22T13:05:22.871Z,1.60
2022-10-22T13:06:32.815Z,1.20
2022-10-22T13:07:45.974Z,1.08
2022-10-22T13:09:07.888Z,1.40
2022-10-22T13:10:32.898Z,1.98
2022-10-22T13:11:40.341Z,2.25
2022-10-22T13:12:56.814Z,2.00
2022-10-22T13:14:26.645Z,1.58
2022-10-22T13:15:49.282Z,1.33
2022-10-22T13:19:07.146Z,2.35
2022-10-22T13:20:24.365Z,1.08
2022-10-22T13:21:39.924Z,2.38
2022-10-22T13:23:03.163Z,1.35
2022-10-22T13:24:27.493Z,1.70
2022-10-22T13:25:36.307Z,1.33
2022-10-22T13:26:52.737Z,2.10
2022-10-22T13:27:58.522Z,2.80
2022-10-22T13:29:07.123Z,1.50
2022-10-22T13:30:26.418Z,1.25
2022-10-22T13:31:38.898Z,1.20
2022-10-22T13:32:42.094Z,0.93
2022-10-22T13:33:50.687Z,1.30
2022-10-22T13:34:54.721Z,1.30
2022-10-22T13:36:02.086Z,0.90
2022-10-22T13:37:09.785Z,1.58
2022-10-22T13:38:26.266Z,2.60
2022-10-22T13:39:30.745Z,1.48
2022-10-22T13:40:43.675Z,1.05
2022-10-22T13:41:55.001Z,2.90
2022-10-22T13:42:59.245Z,1.40
2022-10-22T13:44:06.024Z,1.17
2022-10-22T13:45:11.297Z,0.90
2022-10-22T13:46:18.773Z,1.73
2022-10-22T13:47:32.949Z,1.30
2022-10-22T13:48:39.251Z,0.80
2022-10-22T13:49:44.715Z,0.73
2022-10-22T13:50:51.228Z,1.35
2022-10-22T13:51:54.248Z,1.95
2022-10-22T13:53:02.052Z,1.95
2022-10-22T13:54:11.557Z,2.05
2022-10-22T13:55:22.347Z,1.58
2022-10-22T13:56:31.470Z,1.23
2022-10-22T13:57:38.354Z,0.80
2022-10-22T13:58:47.852Z,1.02
2022-10-22T13:59:52.670Z,1.00
2022-10-22T14:01:03.418Z,1.02
2022-10-22T14:02:11.963Z,0.73
2022-10-22T14:03:27.349Z,1.02
2022-10-22T14:04:30.563Z,1.13
2022-10-22T14:05:36.318Z,0.88
2022-10-22T14:06:39.786Z,1.25
2022-10-22T14:07:46.952Z,1.10
2022-10-22T14:08:56.705Z,1.20
2022-10-22T14:10:04.650Z,1.40
2022-10-22T14:11:11.915Z,1.48
2022-10-22T14:12:20.975Z,1.60
2022-10-22T14:13:24.266Z,0.70
2022-10-22T14:14:30.364Z,0.90
2022-10-22T14:15:36.763Z,1.40
2022-10-22T14:16:43.120Z,1.10
2022-10-22T14:17:57.187Z,1.30
2022-10-22T14:19:04.400Z,0.93
2022-10-22T14:20:07.993Z,1.02
2022-10-22T14:21:16.757Z,0.82
2022-10-22T14:22:25.879Z,1.95
2022-10-22T14:23:33.945Z,1.50
2022-10-22T14:24:38.995Z,1.13
2022-10-22T14:25:45.526Z,1.00
2022-10-22T14:26:48.906Z,1.25
2022-10-22T14:27:57.283Z,1.58
2022-10-22T14:29:11.171Z,0.90
2022-10-22T14:30:16.219Z,0.90
2022-10-22T14:31:24.753Z,1.10
2022-10-22T14:32:29.245Z,1.40
2022-10-22T14:33:37.285Z,1.98
2022-10-22T14:34:40.494Z,1.75
2022-10-22T14:35:48.967Z,1.35
2022-10-22T14:36:52.503Z,1.10
2022-10-22T14:37:58.826Z,1.33
2022-10-22T14:39:05.619Z,1.35
2022-10-22T14:40:18.515Z,1.45
2022-10-22T14:41:23.557Z,0.90
2022-10-22T14:42:30.503Z,0.98
2022-10-22T14:43:35.862Z,0.82
2022-10-22T14:44:42.343Z,1.73
2022-10-22T14:45:45.885Z,2.15
2022-10-22T14:46:54.825Z,0.90
2022-10-22T14:47:57.450Z,0.90
2022-10-22T14:49:13.061Z,1.52
2022-10-22T14:50:20.853Z,0.60
2022-10-22T14:51:34.000Z,1.33
2022-10-22T14:52:42.902Z,2.90
2022-10-22T14:53:54.198Z,1.58
2022-10-22T14:55:03.243Z,1.98
2022-10-22T14:56:14.722Z,5.13
2022-10-22T14:58:23.660Z,1.98
2022-10-22T14:59:32.795Z,0.95
2022-10-22T15:00:37.503Z,15.23
2022-10-22T15:01:44.812Z,0.60
2022-10-22T15:02:48.629Z,1.25
2022-10-22T15:03:54.713Z,1.00
2022-10-22T15:06:04.088Z,1.00
2022-10-22T15:07:07.544Z,2.50
2022-10-22T15:08:14.481Z,1.10
2022-10-22T15:09:17.819Z,1.20
2022-10-22T15:10:24.207Z,1.15
2022-10-22T15:11:28.323Z,0.88
2022-10-22T15:12:35.385Z,1.52
2022-10-22T15:13:38.479Z,1.50
2022-10-22T15:14:47.681Z,0.77
2022-10-22T15:15:50.761Z,1.15
2022-10-22T15:16:57.085Z,1.17
2022-10-22T15:18:02.749Z,2.13
2022-10-22T15:19:06.162Z,1.88
2022-10-22T15:20:13.481Z,1.73
2022-10-22T15:21:18.849Z,1.52
2022-10-22T15:22:25.098Z,8.10
2022-10-22T15:23:37.419Z,3.22
2022-10-22T15:24:40.950Z,1.40
2022-10-22T15:25:50.415Z,3.17
2022-10-22T15:26:59.421Z,2.05
2022-10-22T15:28:09.899Z,2.25
2022-10-22T15:29:19.059Z,2.08
2022-10-22T15:30:24.900Z,33.03
2022-10-22T15:31:47.768Z,5.03
2022-10-22T15:32:53.889Z,203.38
2022-10-22T15:34:01.739Z,201.13
2022-10-22T15:35:06.214Z,123.30
2022-10-22T15:36:18.321Z,4.93
2022-10-22T15:37:21.976Z,2.45
2022-10-22T15:38:31.827Z,2.17
2022-10-22T15:39:35.212Z,65.72
2022-10-22T15:40:41.354Z,9.27
2022-10-22T15:41:44.595Z,2.65
2022-10-22T15:42:50.773Z,0.93
2022-10-22T15:43:54.253Z,1.60
2022-10-22T15:45:05.786Z,1.67
2022-10-22T15:46:17.691Z,2.20
2022-10-22T15:47:25.106Z,1.42
2022-10-22T15:48:28.315Z,1.30
2022-10-22T15:49:35.657Z,1.83
2022-10-22T15:50:39.981Z,2.30
2022-10-22T15:51:46.425Z,1.95
2022-10-22T15:52:56.031Z,2.75
2022-10-22T15:54:06.451Z,4.32
2022-10-22T15:56:19.321Z,2.47
2022-10-22T15:57:22.474Z,3.10
2022-10-22T15:59:47.840Z,2.72
2022-10-22T16:00:51.544Z,1.83
2022-10-22T16:02:00.241Z,46.50
2022-10-22T16:03:03.449Z,120.90
2022-10-22T16:04:10.824Z,107.75
2022-10-22T16:05:20.032Z,36.67
2022-10-22T16:06:26.115Z,33.55
2022-10-22T16:07:33.183Z,27.88
2022-10-22T16:08:37.311Z,18.00
2022-10-22T16:09:50.806Z,28.90
2022-10-22T16:10:57.017Z,30.50
2022-10-22T16:12:03.201Z,32.58
2022-10-22T16:13:06.400Z,497.17
2022-10-22T16:14:13.949Z,488.05
2022-10-22T16:15:20.178Z,458.20
2022-10-22T16:16:26.355Z,638.13
2022-10-22T16:17:35.303Z,674.38
2022-10-22T16:18:38.895Z,697.50
2022-10-22T16:19:44.757Z,629.03
2022-10-22T16:20:50.682Z,513.65
2022-10-22T16:21:59.952Z,209.75
2022-10-22T16:23:03.224Z,127.78
2022-10-22T16:24:11.077Z,8.30
2022-10-22T16:25:17.374Z,10.32